Cohasset, California
Current Conditions -  °F | °C
As of 12:50 PM on Saturday 25 Oct 2014 (Local Time) from KCIC Reporting Station
Broken Clouds Broken Clouds  
Wind Chill: 64°   Ceiling: 5000
Heat Index: 64°   Visibility: 25mi
Dew Point: 54°   Wind: 29mph
Humidity: 68%   Direction: 140°SE
Pressure: 29.97"   Gusts: 37mph
Location:  39.8244°N, 121.905°W
Report Text: KCIC 251950Z 14025G32KT 25SM SCT040 BKN050 18/12 A2997
Loading
Personal Weather Stations






























Interactive Weather Map
Tropical Storm Tracking
New forecast layout! Learn more

10-Day Weather Forecast

Advertisements
Track Severe Weather on mobile